Time;durP1;ratioP1;P1;durP2;ratioP2;P2;SDS_P1;SDS_P2;PMS_P1;PMS_P2;Temp;Humidity;BMP_temperature;BMP_pressure;BME280_temperature;BME280_humidity;BME280_pressure;Samples;Min_cycle;Max_cycle;Signal;HPM_P1;HPM_P2
2024/01/22 00:01:36;;;;;;;16.25;7.82;;;6.30;59.30;;;;;;6247661;28;20047;-72
2024/01/22 00:04:36;;;;;;;18.75;7.60;;;6.40;59.30;;;;;;6249559;28;20686;-72
2024/01/22 00:07:38;;;;;;;19.15;7.50;;;6.40;59.20;;;;;;6243746;28;20036;-73
2024/01/22 00:10:39;;;;;;;9.35;6.07;;;6.40;59.20;;;;;;6245358;28;20028;-72
2024/01/22 00:13:42;;;;;;;16.42;6.03;;;6.40;59.30;;;;;;6252177;28;20029;-73
2024/01/22 00:16:43;;;;;;;10.10;5.22;;;6.30;59.20;;;;;;6249440;28;20440;-72
2024/01/22 00:19:45;;;;;;;14.18;6.10;;;6.30;59.30;;;;;;6245572;28;20078;-72
2024/01/22 00:22:46;;;;;;;18.55;7.22;;;6.20;59.40;;;;;;6251349;28;20441;-72
2024/01/22 00:25:47;;;;;;;25.63;6.03;;;6.10;59.50;;;;;;6242639;28;20029;-70
2024/01/22 00:28:48;;;;;;;15.38;6.85;;;6.10;59.70;;;;;;6267511;28;20059;-72
2024/01/22 00:31:48;;;;;;;12.10;6.55;;;6.00;59.80;;;;;;6246309;28;20028;-72
2024/01/22 00:34:49;;;;;;;14.93;7.10;;;6.00;59.90;;;;;;6259187;28;20105;-72
2024/01/22 00:37:50;;;;;;;10.27;5.63;;;5.90;60.20;;;;;;6242024;28;20477;-72
2024/01/22 00:40:51;;;;;;;13.77;6.97;;;5.80;60.30;;;;;;6242206;28;20071;-72
2024/01/22 00:43:52;;;;;;;17.60;6.95;;;5.80;60.50;;;;;;6247505;28;20449;-72
2024/01/22 00:46:53;;;;;;;18.85;7.45;;;5.80;60.70;;;;;;6247826;28;20410;-72
2024/01/22 00:49:53;;;;;;;13.50;5.72;;;5.70;60.90;;;;;;6247064;28;20627;-72
2024/01/22 00:52:54;;;;;;;10.68;6.22;;;5.70;61.20;;;;;;6262005;28;20043;-72
2024/01/22 00:55:55;;;;;;;9.18;3.97;;;5.60;61.40;;;;;;6242777;28;20020;-72
2024/01/22 00:58:56;;;;;;;22.98;7.35;;;5.60;61.60;;;;;;6248201;28;20780;-73
2024/01/22 01:01:57;;;;;;;12.50;6.10;;;5.50;61.80;;;;;;6263161;28;20025;-72
2024/01/22 01:04:59;;;;;;;14.05;6.40;;;5.50;61.90;;;;;;6246840;28;20055;-73
2024/01/22 01:08:00;;;;;;;14.07;7.95;;;5.50;62.00;;;;;;6246636;28;20112;-72
2024/01/22 01:11:02;;;;;;;17.35;6.93;;;5.40;62.20;;;;;;6243942;28;20427;-72
2024/01/22 01:14:02;;;;;;;20.92;6.68;;;5.40;62.30;;;;;;6249984;28;20089;-70
2024/01/22 01:17:06;;;;;;;11.00;6.30;;;5.40;62.30;;;;;;6246601;28;20017;-72
2024/01/22 01:20:09;;;;;;;14.05;6.57;;;5.40;62.20;;;;;;6246316;28;20350;-73
2024/01/22 01:23:10;;;;;;;18.60;7.32;;;5.50;62.10;;;;;;6241985;28;20045;-72
2024/01/22 01:26:12;;;;;;;14.27;7.00;;;5.40;61.90;;;;;;6245455;28;20021;-72
2024/01/22 01:29:13;;;;;;;17.00;6.18;;;5.40;61.90;;;;;;6241903;28;20175;-72
2024/01/22 01:32:14;;;;;;;14.70;5.18;;;5.50;61.80;;;;;;6262511;28;20163;-72
2024/01/22 01:35:14;;;;;;;12.90;5.05;;;5.50;61.70;;;;;;6231167;28;20037;-72
2024/01/22 01:38:16;;;;;;;8.48;4.93;;;5.50;61.70;;;;;;6244441;28;20032;-71
2024/01/22 01:41:17;;;;;;;14.40;3.42;;;5.40;61.70;;;;;;6245593;28;20041;-71
2024/01/22 01:44:19;;;;;;;15.40;6.75;;;5.40;61.90;;;;;;6250356;28;20056;-71
2024/01/22 01:47:20;;;;;;;10.82;5.10;;;5.40;62.00;;;;;;6228884;28;20049;-72
2024/01/22 01:50:22;;;;;;;12.85;5.07;;;5.40;62.10;;;;;;6243222;28;20021;-72
2024/01/22 01:53:23;;;;;;;8.85;6.03;;;5.40;62.10;;;;;;6245195;28;20578;-72
2024/01/22 01:56:25;;;;;;;16.13;6.75;;;5.40;62.10;;;;;;6241235;28;20029;-72
2024/01/22 01:59:26;;;;;;;10.18;5.90;;;5.50;62.10;;;;;;6261869;28;20037;-73
2024/01/22 02:02:27;;;;;;;9.80;5.07;;;5.50;61.90;;;;;;6244088;28;20496;-72
2024/01/22 02:05:28;;;;;;;11.80;6.10;;;5.50;61.80;;;;;;6247507;28;20049;-71
2024/01/22 02:08:28;;;;;;;16.95;7.40;;;5.50;61.70;;;;;;6240836;28;20017;-71
2024/01/22 02:11:29;;;;;;;16.92;6.70;;;5.50;61.80;;;;;;6246178;28;20029;-72
2024/01/22 02:14:30;;;;;;;16.67;6.25;;;5.40;61.80;;;;;;6244329;28;20033;-71
2024/01/22 02:17:31;;;;;;;8.30;5.35;;;5.40;61.90;;;;;;6220279;28;20021;-72
2024/01/22 02:20:32;;;;;;;10.77;5.45;;;5.40;62.00;;;;;;6243039;28;20462;-71
2024/01/22 02:23:32;;;;;;;14.02;6.97;;;5.40;62.00;;;;;;6241307;28;20110;-72
2024/01/22 02:26:33;;;;;;;9.60;5.43;;;5.40;62.20;;;;;;6237995;28;20307;-72
2024/01/22 02:29:34;;;;;;;14.13;6.30;;;5.40;62.20;;;;;;6243797;28;20040;-71
2024/01/22 02:32:35;;;;;;;7.95;4.60;;;5.50;62.10;;;;;;6273228;28;20017;-72
2024/01/22 02:35:36;;;;;;;36.60;5.90;;;5.50;62.10;;;;;;6258657;28;20139;-70
2024/01/22 02:38:37;;;;;;;10.07;4.85;;;5.60;62.00;;;;;;6245895;28;20154;-72
2024/01/22 02:41:38;;;;;;;16.88;6.80;;;5.60;61.80;;;;;;6241167;28;20025;-72
2024/01/22 02:44:41;;;;;;;19.33;7.18;;;5.60;61.80;;;;;;6242903;28;20049;-72
2024/01/22 02:47:44;;;;;;;15.02;6.25;;;5.60;61.80;;;;;;6239602;28;20056;-72
2024/01/22 02:50:44;;;;;;;9.15;5.55;;;5.60;61.80;;;;;;6246816;28;20072;-72
2024/01/22 02:53:45;;;;;;;21.65;6.00;;;5.60;61.70;;;;;;6246307;28;20096;-72
2024/01/22 02:56:47;;;;;;;15.40;6.55;;;5.70;61.70;;;;;;6243383;28;20025;-70
2024/01/22 02:59:48;;;;;;;14.35;7.00;;;5.70;61.50;;;;;;6248710;28;20037;-71
2024/01/22 03:02:50;;;;;;;13.85;6.15;;;5.80;61.40;;;;;;6242602;28;20025;-71
2024/01/22 03:05:52;;;;;;;11.13;5.07;;;5.80;61.40;;;;;;6237755;28;20466;-71
2024/01/22 03:08:53;;;;;;;9.77;5.35;;;5.70;61.20;;;;;;6242243;28;20035;-71
2024/01/22 03:11:54;;;;;;;13.55;4.45;;;5.60;61.10;;;;;;6246759;28;20374;-71
2024/01/22 03:14:55;;;;;;;11.65;6.03;;;5.50;61.10;;;;;;6250652;28;20102;-70
2024/01/22 03:17:55;;;;;;;12.38;6.13;;;5.50;61.10;;;;;;6242557;28;20452;-71
2024/01/22 03:20:57;;;;;;;15.20;5.40;;;5.50;61.30;;;;;;6243524;28;20034;-72
2024/01/22 03:23:57;;;;;;;12.05;6.55;;;5.40;61.40;;;;;;6247478;28;20024;-71
2024/01/22 03:26:58;;;;;;;10.48;5.43;;;5.40;61.50;;;;;;6241331;28;20048;-72
2024/01/22 03:30:00;;;;;;;12.02;5.20;;;5.50;61.70;;;;;;6226983;28;20025;-71
2024/01/22 03:33:01;;;;;;;11.77;5.30;;;5.30;61.70;;;;;;6243408;28;20068;-72
2024/01/22 03:36:03;;;;;;;13.07;6.47;;;5.30;61.90;;;;;;6246425;28;20491;-72
2024/01/22 03:39:04;;;;;;;14.65;6.18;;;5.30;61.90;;;;;;6224446;28;20044;-71
2024/01/22 03:42:05;;;;;;;13.25;6.13;;;5.20;61.90;;;;;;6252295;28;20014;-72
2024/01/22 03:45:06;;;;;;;17.30;6.47;;;5.20;62.10;;;;;;6249065;28;20021;-71
2024/01/22 03:48:07;;;;;;;13.75;4.97;;;5.10;62.20;;;;;;6245249;28;20021;-70
2024/01/22 03:51:08;;;;;;;10.23;5.80;;;5.10;62.40;;;;;;6263762;28;20052;-72
2024/01/22 03:54:10;;;;;;;11.52;6.47;;;5.10;62.40;;;;;;6238224;28;20031;-72
2024/01/22 03:57:11;;;;;;;11.35;5.53;;;5.10;62.60;;;;;;6245141;28;20037;-72
2024/01/22 04:00:12;;;;;;;11.18;6.63;;;5.00;62.60;;;;;;6248711;28;20874;-72
2024/01/22 04:03:13;;;;;;;17.05;6.82;;;5.00;62.70;;;;;;6241772;28;20452;-72
2024/01/22 04:06:14;;;;;;;15.63;6.10;;;5.00;62.80;;;;;;6245950;28;20111;-73
2024/01/22 04:09:16;;;;;;;23.40;5.20;;;5.10;62.90;;;;;;6260521;28;20032;-71
2024/01/22 04:12:17;;;;;;;12.65;6.25;;;5.10;62.80;;;;;;6254354;28;20024;-71
2024/01/22 04:15:19;;;;;;;12.77;6.15;;;5.20;62.80;;;;;;6243060;28;20064;-71
2024/01/22 04:18:19;;;;;;;10.20;5.72;;;5.20;62.70;;;;;;6248637;28;20017;-72
2024/01/22 04:21:22;;;;;;;19.67;5.40;;;5.20;62.50;;;;;;6244820;28;20437;-71
2024/01/22 04:24:23;;;;;;;10.10;5.13;;;5.30;62.50;;;;;;6279367;28;20017;-71
2024/01/22 04:27:24;;;;;;;10.02;5.55;;;5.40;62.50;;;;;;6246409;28;20629;-72
2024/01/22 04:30:24;;;;;;;10.82;5.60;;;5.40;62.30;;;;;;6247570;28;20013;-72
2024/01/22 04:33:27;;;;;;;10.80;5.60;;;5.50;62.10;;;;;;6244639;28;20108;-71
2024/01/22 04:36:30;;;;;;;13.30;6.35;;;5.50;62.20;;;;;;6252432;28;20061;-72
2024/01/22 04:39:34;;;;;;;10.60;4.55;;;5.70;62.20;;;;;;6243215;28;20041;-73
2024/01/22 04:42:34;;;;;;;25.05;6.78;;;5.50;62.00;;;;;;6245991;28;20017;-72
2024/01/22 04:45:36;;;;;;;12.45;6.55;;;5.50;61.70;;;;;;6248755;28;20457;-71
2024/01/22 04:48:37;;;;;;;18.95;6.45;;;5.50;61.70;;;;;;6245848;28;20041;-72
2024/01/22 04:51:44;;;;;;;9.23;5.63;;;5.40;61.80;;;;;;6241440;28;20028;-71
2024/01/22 04:54:45;;;;;;;10.47;5.37;;;5.40;62.10;;;;;;6220065;28;20111;-70
2024/01/22 04:57:47;;;;;;;10.88;5.00;;;5.40;62.00;;;;;;6241804;28;20271;-71
2024/01/22 05:00:48;;;;;;;10.48;5.72;;;5.40;62.10;;;;;;6243338;28;20128;-72
2024/01/22 05:03:49;;;;;;;19.55;6.97;;;5.40;62.10;;;;;;6259457;28;20232;-72
2024/01/22 05:06:50;;;;;;;20.38;7.05;;;5.30;62.20;;;;;;6244037;28;20108;-71
2024/01/22 05:10:00;;;;;;;13.95;6.30;;;5.30;62.40;;;;;;6275029;28;20508;-73
2024/01/22 05:13:01;;;;;;;29.25;7.50;;;5.20;62.40;;;;;;6266911;28;20429;-73
2024/01/22 05:16:01;;;;;;;10.48;5.35;;;5.30;62.50;;;;;;6248803;28;20028;-72
2024/01/22 05:19:02;;;;;;;13.57;5.40;;;5.30;62.40;;;;;;6244980;28;20021;-74
2024/01/22 05:22:03;;;;;;;7.30;4.45;;;5.20;62.50;;;;;;6245980;28;20136;-72
2024/01/22 05:25:05;;;;;;;10.55;5.82;;;5.20;62.70;;;;;;6244254;28;20154;-72
2024/01/22 05:28:06;;;;;;;10.15;4.35;;;5.10;62.90;;;;;;6261529;28;20027;-72
2024/01/22 05:31:08;;;;;;;12.85;5.78;;;5.00;63.20;;;;;;6242616;28;20469;-71
2024/01/22 05:34:09;;;;;;;13.18;5.88;;;5.00;63.50;;;;;;6244412;28;20040;-72
2024/01/22 05:37:09;;;;;;;10.98;4.72;;;5.00;63.60;;;;;;6251307;28;20017;-72
2024/01/22 05:40:13;;;;;;;10.25;4.57;;;5.00;63.70;;;;;;6237705;28;20025;-72
2024/01/22 05:43:15;;;;;;;16.58;6.43;;;5.00;63.80;;;;;;6229653;28;20025;-70
2024/01/22 05:46:17;;;;;;;21.20;6.30;;;5.10;63.70;;;;;;6253309;28;20036;-72
2024/01/22 05:49:18;;;;;;;10.90;5.18;;;5.10;63.60;;;;;;6271314;28;20132;-73
2024/01/22 05:52:20;;;;;;;6.85;4.10;;;5.20;63.50;;;;;;6237136;28;20029;-72
2024/01/22 05:55:21;;;;;;;9.90;4.60;;;5.20;63.50;;;;;;6245440;28;20052;-72
2024/01/22 05:58:22;;;;;;;13.15;5.70;;;5.30;63.40;;;;;;6259114;28;20028;-71
2024/01/22 06:01:25;;;;;;;14.73;5.90;;;5.50;63.40;;;;;;6274224;28;20136;-72
2024/01/22 06:04:26;;;;;;;9.85;5.20;;;5.60;63.20;;;;;;6250604;28;20495;-72
2024/01/22 06:07:26;;;;;;;13.30;5.00;;;5.70;63.00;;;;;;6247273;28;20028;-72
2024/01/22 06:10:29;;;;;;;14.65;5.20;;;5.80;62.70;;;;;;6248794;28;21541;-73
2024/01/22 06:13:31;;;;;;;13.25;5.75;;;5.70;62.40;;;;;;6248651;28;20085;-73
2024/01/22 06:16:32;;;;;;;20.05;5.80;;;5.80;62.40;;;;;;6245059;28;20757;-73
2024/01/22 06:19:33;;;;;;;12.43;6.40;;;5.80;62.30;;;;;;6239791;28;20030;-73
2024/01/22 06:22:35;;;;;;;9.55;4.82;;;5.80;62.30;;;;;;6238801;28;20169;-73
2024/01/22 06:25:36;;;;;;;9.52;4.88;;;5.90;62.30;;;;;;6243291;28;20021;-71
2024/01/22 06:28:38;;;;;;;8.38;3.33;;;6.00;62.10;;;;;;6248865;28;20028;-73
2024/01/22 06:31:41;;;;;;;7.55;3.63;;;6.00;61.80;;;;;;6257759;28;20528;-72
2024/01/22 06:34:42;;;;;;;9.48;3.25;;;6.00;61.50;;;;;;6225487;28;20127;-71
2024/01/22 06:37:42;;;;;;;4.20;2.47;;;6.10;61.00;;;;;;6248530;28;20025;-70
2024/01/22 06:40:46;;;;;;;6.28;2.30;;;6.10;60.40;;;;;;6248520;28;20040;-73
2024/01/22 06:43:47;;;;;;;6.00;3.10;;;6.00;59.90;;;;;;6232063;28;20099;-73
2024/01/22 06:46:48;;;;;;;6.35;2.92;;;6.00;59.70;;;;;;6245590;28;20035;-73
2024/01/22 06:49:49;;;;;;;5.43;2.72;;;6.00;59.70;;;;;;6240308;28;20071;-73
2024/01/22 06:52:51;;;;;;;8.43;3.90;;;6.00;59.40;;;;;;6244999;28;20108;-71
2024/01/22 06:55:51;;;;;;;7.97;2.75;;;6.00;59.30;;;;;;6259405;28;20749;-72
2024/01/22 06:58:52;;;;;;;8.50;4.05;;;5.90;59.30;;;;;;6250365;28;20105;-70
2024/01/22 07:01:53;;;;;;;6.28;3.35;;;5.90;59.40;;;;;;6247093;28;20130;-72
2024/01/22 07:04:56;;;;;;;9.48;4.03;;;5.90;59.30;;;;;;6250146;28;20115;-71
2024/01/22 07:07:58;;;;;;;9.93;4.25;;;5.90;59.30;;;;;;6247400;28;21410;-72
2024/01/22 07:10:59;;;;;;;9.73;4.05;;;5.90;59.40;;;;;;6243521;28;20029;-71
2024/01/22 07:13:59;;;;;;;8.20;3.38;;;5.90;59.50;;;;;;6249317;28;20112;-74
2024/01/22 07:17:00;;;;;;;3.80;2.35;;;5.90;59.50;;;;;;6248320;28;20878;-74
2024/01/22 07:20:01;;;;;;;15.43;5.00;;;5.90;59.50;;;;;;6248826;28;20036;-73
2024/01/22 07:23:03;;;;;;;8.15;4.85;;;5.90;59.50;;;;;;6247518;28;20493;-71
2024/01/22 07:26:04;;;;;;;6.88;3.40;;;5.90;59.60;;;;;;6242126;28;20017;-71
2024/01/22 07:29:06;;;;;;;11.80;3.40;;;5.90;59.50;;;;;;6263619;28;20104;-72
2024/01/22 07:32:09;;;;;;;6.57;3.20;;;5.90;59.50;;;;;;6245182;28;20103;-71
2024/01/22 07:35:11;;;;;;;11.18;4.25;;;5.90;59.60;;;;;;6247795;28;20108;-72
2024/01/22 07:38:13;;;;;;;14.73;4.13;;;6.00;59.70;;;;;;6244838;28;20021;-72
2024/01/22 07:41:14;;;;;;;9.48;4.35;;;6.00;59.60;;;;;;6258430;28;20026;-72
2024/01/22 07:44:14;;;;;;;11.77;3.95;;;6.10;59.70;;;;;;6256343;28;20068;-72
2024/01/22 07:47:15;;;;;;;13.45;4.97;;;6.10;59.70;;;;;;6254957;28;20524;-73
2024/01/22 07:50:16;;;;;;;11.48;5.63;;;6.20;59.80;;;;;;6229512;28;20409;-71
2024/01/22 07:53:18;;;;;;;16.85;6.22;;;6.20;59.80;;;;;;6247237;28;20488;-71
2024/01/22 07:56:20;;;;;;;10.18;5.97;;;6.30;59.80;;;;;;6245858;28;20022;-72
2024/01/22 07:59:21;;;;;;;14.30;6.28;;;6.40;59.80;;;;;;6260968;28;20025;-75
2024/01/22 08:02:22;;;;;;;7.70;4.68;;;6.50;59.70;;;;;;6246533;28;20021;-72
2024/01/22 08:05:22;;;;;;;6.78;3.47;;;6.60;59.70;;;;;;6256162;28;20394;-72
2024/01/22 08:08:25;;;;;;;12.65;5.68;;;6.70;60.30;;;;;;6233066;28;20141;-72
2024/01/22 08:11:28;;;;;;;11.63;5.78;;;6.80;59.60;;;;;;6260169;28;20104;-72
2024/01/22 08:14:28;;;;;;;10.10;6.03;;;6.80;59.50;;;;;;6249362;28;20024;-71
2024/01/22 08:17:30;;;;;;;12.15;5.03;;;6.90;59.40;;;;;;6259554;28;20145;-72
2024/01/22 08:20:31;;;;;;;15.35;6.05;;;7.10;59.40;;;;;;6228767;28;20051;-73
2024/01/22 08:23:33;;;;;;;18.23;6.35;;;7.10;59.20;;;;;;6245006;28;20158;-73
2024/01/22 08:26:33;;;;;;;12.23;6.00;;;7.20;59.00;;;;;;6227609;28;20032;-73
2024/01/22 08:29:34;;;;;;;14.98;5.93;;;7.10;58.90;;;;;;6242732;28;20469;-71
2024/01/22 08:32:35;;;;;;;23.30;9.30;;;7.20;59.00;;;;;;6275596;28;20043;-72
2024/01/22 08:35:36;;;;;;;13.18;6.18;;;7.20;59.10;;;;;;6245195;28;20727;-73
2024/01/22 08:38:37;;;;;;;11.70;5.97;;;7.30;59.00;;;;;;6244731;28;20131;-72
2024/01/22 08:41:38;;;;;;;26.48;5.75;;;7.40;58.80;;;;;;6243130;28;20044;-71
2024/01/22 08:44:39;;;;;;;31.90;6.47;;;7.50;58.60;;;;;;6246795;28;20057;-72
2024/01/22 08:47:40;;;;;;;19.80;7.38;;;7.50;58.60;;;;;;6245077;28;20024;-72
2024/01/22 08:50:41;;;;;;;20.17;6.28;;;7.60;58.60;;;;;;6243038;28;20024;-71
2024/01/22 08:53:42;;;;;;;10.07;5.90;;;7.60;58.60;;;;;;6237773;28;20326;-70
2024/01/22 08:56:42;;;;;;;11.65;5.80;;;7.70;58.50;;;;;;6244908;28;20491;-71
2024/01/22 08:59:43;;;;;;;16.27;5.85;;;7.80;59.10;;;;;;6242870;28;20064;-73
2024/01/22 09:02:44;;;;;;;11.45;5.60;;;7.90;58.30;;;;;;6242429;28;20032;-72
2024/01/22 09:05:45;;;;;;;15.77;5.18;;;8.00;58.30;;;;;;6244956;28;20106;-73
2024/01/22 09:08:46;;;;;;;11.48;5.72;;;8.00;58.20;;;;;;6241550;28;20417;-72
2024/01/22 09:11:46;;;;;;;10.95;5.32;;;8.10;58.10;;;;;;6258793;28;20094;-75
2024/01/22 09:14:47;;;;;;;11.70;5.82;;;8.20;58.10;;;;;;6241234;28;20029;-71
2024/01/22 09:17:48;;;;;;;17.17;6.35;;;8.30;57.80;;;;;;6243541;28;20068;-72
2024/01/22 09:20:51;;;;;;;11.30;4.88;;;8.40;57.40;;;;;;6240898;28;20099;-73
2024/01/22 09:23:52;;;;;;;13.18;6.80;;;8.50;57.30;;;;;;6243899;28;20017;-72
2024/01/22 09:26:53;;;;;;;12.68;6.25;;;8.60;56.90;;;;;;6278188;28;20120;-72
2024/01/22 09:29:54;;;;;;;19.55;6.57;;;8.60;56.70;;;;;;6267106;28;20071;-74
2024/01/22 09:32:57;;;;;;;8.40;4.40;;;8.70;56.80;;;;;;6242105;28;20017;-71
2024/01/22 09:36:03;;;;;;;9.48;5.10;;;8.80;56.70;;;;;;6247427;28;20152;-72
2024/01/22 09:39:05;;;;;;;13.15;5.40;;;8.80;56.40;;;;;;6232934;28;20062;-71
2024/01/22 09:42:06;;;;;;;23.73;6.60;;;9.00;56.40;;;;;;6247052;28;20101;-71
2024/01/22 09:45:08;;;;;;;12.45;6.50;;;8.90;55.90;;;;;;6244451;28;20041;-71
2024/01/22 09:48:09;;;;;;;18.15;7.97;;;8.80;55.40;;;;;;6244681;28;20075;-72
2024/01/22 09:51:10;;;;;;;14.25;6.47;;;8.80;55.50;;;;;;6225797;28;20020;-73
2024/01/22 09:54:17;;;;;;;12.90;5.60;;;8.80;55.50;;;;;;6245691;28;20544;-71
2024/01/22 09:57:18;;;;;;;15.40;6.68;;;8.80;55.30;;;;;;6226985;28;20031;-72
2024/01/22 10:00:25;;;;;;;16.17;6.75;;;8.80;55.10;;;;;;6245034;28;20400;-71
2024/01/22 10:03:30;;;;;;;20.60;5.22;;;8.80;55.30;;;;;;6259771;28;20077;-71
2024/01/22 10:06:33;;;;;;;11.40;6.22;;;8.90;55.20;;;;;;6241002;28;20033;-71
2024/01/22 10:09:35;;;;;;;12.93;6.25;;;9.00;54.70;;;;;;6248142;28;20361;-70
2024/01/22 10:13:03;;;;;;;11.77;6.30;;;9.10;54.70;;;;;;6285632;28;20040;-71
2024/01/22 10:16:11;;;;;;;23.73;6.63;;;9.30;54.70;;;;;;6241070;28;20481;-70
2024/01/22 10:19:12;;;;;;;11.60;5.00;;;9.80;54.40;;;;;;6242886;28;20337;-72
2024/01/22 10:22:20;;;;;;;10.52;5.13;;;10.20;53.30;;;;;;6240969;28;20036;-71
2024/01/22 10:25:21;;;;;;;9.95;5.57;;;10.40;52.50;;;;;;6243136;28;20087;-70
2024/01/22 10:28:21;;;;;;;9.02;4.57;;;10.60;52.10;;;;;;6227827;28;20052;-73
2024/01/22 10:31:23;;;;;;;12.35;4.75;;;10.60;51.60;;;;;;6248395;28;20639;-71
2024/01/22 10:34:31;;;;;;;8.18;4.60;;;10.60;51.30;;;;;;6242230;28;20021;-71
2024/01/22 10:37:31;;;;;;;11.40;5.20;;;10.60;51.70;;;;;;6240906;28;20017;-73
2024/01/22 10:40:32;;;;;;;8.93;4.45;;;10.60;51.50;;;;;;6238554;28;20120;-72
2024/01/22 10:43:34;;;;;;;10.07;4.40;;;10.50;51.10;;;;;;6249865;28;20486;-70
2024/01/22 10:46:36;;;;;;;14.15;5.53;;;10.40;51.00;;;;;;6249518;28;20059;-72
2024/01/22 10:49:39;;;;;;;16.25;6.32;;;10.30;51.20;;;;;;6261565;28;20048;-72
2024/01/22 10:52:42;;;;;;;21.48;6.03;;;10.20;51.50;;;;;;6240258;28;20032;-71
2024/01/22 10:56:02;;;;;;;12.07;5.30;;;10.30;51.50;;;;;;6245308;28;20041;-71
2024/01/22 10:59:14;;;;;;;11.93;4.78;;;10.30;51.30;;;;;;6273536;28;20121;-72
2024/01/22 11:02:22;;;;;;;10.05;4.38;;;10.40;51.10;;;;;;6238883;28;20135;-72
2024/01/22 11:05:28;;;;;;;15.20;5.97;;;10.50;50.90;;;;;;6238646;28;20100;-72
2024/01/22 11:08:31;;;;;;;14.82;5.07;;;10.60;50.90;;;;;;6240526;28;20018;-72
2024/01/22 11:11:35;;;;;;;13.27;5.50;;;10.70;51.00;;;;;;6243031;28;20023;-73
2024/01/22 11:14:40;;;;;;;13.63;4.03;;;10.70;50.70;;;;;;6243212;28;20035;-72
2024/01/22 11:17:41;;;;;;;8.10;4.40;;;10.80;50.70;;;;;;6274426;28;20029;-72
2024/01/22 11:20:42;;;;;;;13.27;5.25;;;10.90;50.60;;;;;;6242805;28;20028;-72
2024/01/22 11:23:43;;;;;;;11.38;5.80;;;11.10;50.50;;;;;;6253746;28;20021;-73
2024/01/22 11:27:05;;;;;;;9.15;5.03;;;11.20;50.30;;;;;;6239974;28;20441;-72
2024/01/22 11:30:21;;;;;;;18.05;6.32;;;11.30;50.20;;;;;;6245341;28;20032;-72
2024/01/22 11:33:25;;;;;;;13.98;5.82;;;11.40;50.00;;;;;;6240280;28;20032;-73
2024/01/22 11:36:57;;;;;;;17.23;6.90;;;11.40;49.80;;;;;;6255404;28;20029;-72
2024/01/22 11:39:57;;;;;;;18.02;6.60;;;11.40;49.90;;;;;;6192918;28;20379;-73
2024/01/22 11:42:58;;;;;;;16.73;6.97;;;11.40;49.70;;;;;;6180696;28;20026;-71
2024/01/22 11:46:15;;;;;;;17.88;6.65;;;11.40;50.00;;;;;;6181507;28;20018;-73
2024/01/22 11:49:17;;;;;;;12.30;6.10;;;11.40;50.00;;;;;;6180958;28;20084;-72
2024/01/22 11:52:22;;;;;;;25.67;6.15;;;11.40;49.90;;;;;;6180281;28;20026;-72
2024/01/22 11:55:23;;;;;;;11.32;6.20;;;11.50;49.90;;;;;;6160822;28;20026;-72
2024/01/22 11:58:24;;;;;;;15.30;7.78;;;11.50;49.90;;;;;;6164175;28;20109;-72
2024/01/22 12:01:25;;;;;;;22.23;5.90;;;11.50;49.90;;;;;;6180451;28;20436;-72
2024/01/22 12:04:28;;;;;;;15.23;7.13;;;11.50;49.80;;;;;;6180657;28;20023;-72
2024/01/22 12:07:45;;;;;;;13.63;5.05;;;11.50;49.70;;;;;;6164509;28;20023;-70
2024/01/22 12:10:46;;;;;;;12.95;6.65;;;11.50;49.70;;;;;;6139141;28;20030;-70
2024/01/22 12:13:47;;;;;;;14.57;6.85;;;11.50;49.70;;;;;;6179474;28;20033;-73
2024/01/22 12:17:01;;;;;;;16.33;6.22;;;11.60;49.70;;;;;;6230283;28;20509;-74
2024/01/22 12:20:03;;;;;;;12.68;6.25;;;11.70;49.60;;;;;;6263153;28;20089;-71
2024/01/22 12:23:05;;;;;;;10.38;6.68;;;11.80;49.40;;;;;;6247617;28;20463;-70
2024/01/22 12:26:22;;;;;;;14.48;6.82;;;11.90;49.20;;;;;;6231011;28;20120;-73
2024/01/22 12:29:25;;;;;;;13.18;5.82;;;11.90;49.00;;;;;;6263120;28;20029;-73
2024/01/22 12:32:26;;;;;;;10.82;5.35;;;11.90;49.00;;;;;;6248456;28;20021;-72
2024/01/22 12:35:26;;;;;;;20.13;6.85;;;11.90;49.00;;;;;;6247193;28;20116;-72
2024/01/22 12:38:33;;;;;;;10.88;5.68;;;11.80;49.10;;;;;;6241792;28;20036;-71
2024/01/22 12:41:35;;;;;;;13.75;6.40;;;11.80;49.00;;;;;;6246968;28;20083;-71
2024/01/22 12:44:35;;;;;;;16.50;6.38;;;11.80;48.90;;;;;;6238648;28;20017;-72
2024/01/22 12:47:36;;;;;;;16.33;5.85;;;11.70;48.90;;;;;;6260784;28;20074;-72
2024/01/22 12:50:37;;;;;;;16.98;7.85;;;11.60;49.00;;;;;;6276295;28;20036;-71
2024/01/22 12:53:43;;;;;;;12.00;6.13;;;11.60;49.10;;;;;;6245583;28;20031;-72
2024/01/22 12:56:44;;;;;;;19.55;6.60;;;11.40;49.10;;;;;;6244120;28;20037;-71
2024/01/22 12:59:48;;;;;;;17.10;6.03;;;11.30;49.30;;;;;;6255562;28;20103;-72
2024/01/22 13:02:49;;;;;;;17.55;6.15;;;11.20;49.60;;;;;;6226045;28;20025;-71
2024/01/22 13:05:51;;;;;;;12.20;5.53;;;11.20;49.80;;;;;;6241935;28;20028;-73
2024/01/22 13:08:51;;;;;;;17.23;6.00;;;11.20;50.00;;;;;;6276728;28;20029;-72
2024/01/22 13:11:52;;;;;;;15.40;5.72;;;11.20;50.20;;;;;;6248680;28;20111;-71
2024/01/22 13:14:54;;;;;;;18.73;6.03;;;11.20;50.30;;;;;;6243681;28;20441;-71
2024/01/22 13:17:55;;;;;;;13.82;4.45;;;11.20;50.30;;;;;;6249642;28;20033;-72
2024/01/22 13:20:56;;;;;;;13.45;5.35;;;11.30;50.00;;;;;;6244894;28;20040;-71
2024/01/22 13:23:58;;;;;;;8.15;4.07;;;11.30;49.50;;;;;;6244227;28;20060;-73
2024/01/22 13:27:24;;;;;;;11.73;4.57;;;11.40;49.60;;;;;;6245069;28;20288;-74
2024/01/22 13:30:25;;;;;;;12.60;4.80;;;11.40;49.60;;;;;;6240366;28;20044;-72
2024/01/22 13:33:26;;;;;;;9.35;3.30;;;11.50;49.60;;;;;;6243834;28;20087;-72
2024/01/22 13:36:27;;;;;;;11.10;4.25;;;11.50;49.40;;;;;;6242604;28;20479;-73
2024/01/22 13:39:28;;;;;;;8.60;4.20;;;11.50;49.20;;;;;;6243125;28;20028;-72
2024/01/22 13:42:29;;;;;;;10.93;4.30;;;11.50;49.00;;;;;;6282614;28;20117;-72
2024/01/22 13:45:30;;;;;;;7.70;3.40;;;11.40;48.90;;;;;;6275369;28;20088;-72
2024/01/22 13:48:31;;;;;;;10.93;3.28;;;11.40;48.90;;;;;;6246191;28;20017;-73
2024/01/22 13:51:32;;;;;;;6.88;3.35;;;11.30;48.90;;;;;;6232251;28;20009;-73
2024/01/22 13:54:35;;;;;;;11.55;3.67;;;11.20;49.00;;;;;;6244141;28;20017;-73
2024/01/22 13:57:36;;;;;;;7.55;3.25;;;11.20;49.30;;;;;;6240816;28;20072;-72
2024/01/22 14:00:37;;;;;;;8.07;3.58;;;11.10;49.70;;;;;;6260277;28;20048;-72
2024/01/22 14:03:39;;;;;;;10.82;4.18;;;11.10;50.30;;;;;;6240794;28;20033;-70
2024/01/22 14:06:39;;;;;;;22.60;3.92;;;10.90;51.00;;;;;;6259751;28;20025;-73
2024/01/22 14:09:40;;;;;;;6.93;3.28;;;10.80;52.30;;;;;;6233063;28;20382;-73
2024/01/22 14:12:41;;;;;;;7.03;3.83;;;10.80;52.40;;;;;;6252443;28;20029;-73
2024/01/22 14:15:43;;;;;;;13.80;3.92;;;10.70;52.70;;;;;;6240353;28;20128;-73
2024/01/22 14:18:44;;;;;;;11.85;4.50;;;10.70;53.20;;;;;;6247485;28;20098;-73
2024/01/22 14:21:46;;;;;;;12.73;4.53;;;10.70;53.50;;;;;;6243203;28;20048;-73
2024/01/22 14:24:48;;;;;;;12.93;4.05;;;10.70;53.80;;;;;;6241432;28;20029;-72
2024/01/22 14:27:48;;;;;;;12.48;4.15;;;10.70;54.10;;;;;;6244079;28;20033;-73
2024/01/22 14:30:49;;;;;;;14.45;4.82;;;10.80;54.30;;;;;;6247008;28;20134;-73
2024/01/22 14:33:50;;;;;;;9.05;4.32;;;10.80;54.40;;;;;;6235060;28;20029;-73
2024/01/22 14:36:51;;;;;;;13.23;4.82;;;10.80;54.40;;;;;;6225544;28;20025;-73
2024/01/22 14:39:53;;;;;;;25.80;4.47;;;10.80;54.50;;;;;;6242849;28;20540;-72
2024/01/22 14:42:57;;;;;;;10.77;4.78;;;10.80;54.50;;;;;;6249486;28;20113;-72
2024/01/22 14:45:58;;;;;;;12.85;4.63;;;10.90;54.60;;;;;;6240767;28;20018;-71
2024/01/22 14:48:58;;;;;;;8.65;3.92;;;10.90;54.60;;;;;;6239737;28;20025;-73
2024/01/22 14:51:59;;;;;;;11.43;5.10;;;10.90;54.60;;;;;;6241462;28;20156;-72
2024/01/22 14:55:00;;;;;;;19.40;5.63;;;10.90;54.70;;;;;;6239725;28;20128;-73
2024/01/22 14:58:02;;;;;;;12.50;5.10;;;10.90;54.90;;;;;;6239751;28;20025;-73
2024/01/22 15:01:03;;;;;;;10.23;5.43;;;10.90;55.30;;;;;;6243211;28;20128;-73
2024/01/22 15:04:09;;;;;;;19.95;5.78;;;10.90;55.70;;;;;;6262730;28;20020;-73
2024/01/22 15:07:09;;;;;;;16.80;6.13;;;10.90;56.30;;;;;;6273094;28;20022;-71
2024/01/22 15:10:11;;;;;;;20.55;6.57;;;10.80;56.70;;;;;;6243128;28;20024;-72
2024/01/22 15:13:11;;;;;;;15.35;5.80;;;10.70;56.80;;;;;;6248732;28;20014;-72
2024/01/22 15:16:12;;;;;;;21.08;7.00;;;10.60;57.10;;;;;;6250344;28;20422;-73
2024/01/22 15:19:13;;;;;;;16.88;6.80;;;10.60;57.30;;;;;;6250948;28;20047;-74
2024/01/22 15:22:14;;;;;;;18.60;6.63;;;10.60;57.50;;;;;;6249802;28;20112;-72
2024/01/22 15:25:16;;;;;;;21.48;7.32;;;10.50;57.60;;;;;;6245270;28;20009;-73
2024/01/22 15:28:17;;;;;;;15.32;6.10;;;10.50;57.90;;;;;;6262379;28;20778;-72
2024/01/22 15:31:18;;;;;;;16.02;5.90;;;10.40;58.10;;;;;;6249089;28;20119;-73
2024/01/22 15:34:19;;;;;;;17.65;6.22;;;10.30;58.30;;;;;;6252345;28;20064;-73
2024/01/22 15:37:19;;;;;;;26.83;7.90;;;10.30;58.50;;;;;;6249802;28;20031;-71
2024/01/22 15:40:21;;;;;;;13.27;6.32;;;10.20;58.70;;;;;;6251088;28;20036;-74
2024/01/22 15:43:22;;;;;;;20.13;6.80;;;10.20;58.80;;;;;;6251367;28;20110;-73
2024/01/22 15:46:23;;;;;;;16.15;6.72;;;10.20;59.00;;;;;;6243669;28;20022;-72